Flight Track Log - Related Links

Times and Time Zones

All times are in EDT time to prevent confusion due to time zone crossing. See the GJS3618 flight status page for this flight to view local times or setup timezone preferences in your user account.

Time Position Orientation Groundspeed Altitude Reporting Facility
EDT Latitude Longitude Course Direction KTS MPH feet Rate Location/Type
Fri 02:40:58 PM 38.7275 -90.2697 14° North 164 189 1,400  Level FAA TRACON SMA TRACON (SMA)
Fri 02:41:18 PM 38.7250 -90.2514 100° East 173 199 2,100 2,100 Climbing FAA TRACON SMA TRACON (SMA)
Fri 02:41:38 PM 38.7239 -90.2256 93° East 186 214 2,800 2,100 Climbing FAA TRACON SMA TRACON (SMA)
Fri 02:41:58 PM 38.7269 -90.2036 80° East 205 236 3,500 2,049 Climbing FAA TRACON SMA TRACON (SMA)
Fri 02:42:19 PM 38.7403 -90.1869 44° Northeast 222 255 4,200 2,195 Climbing FAA TRACON SMA TRACON (SMA)
Fri 02:42:39 PM 38.7628 -90.1706 30° Northeast 238 274 5,000 2,615 Climbing FAA TRACON SMA TRACON (SMA)
Fri 02:42:58 PM 38.7822 -90.1583 26° Northeast 251 289 5,900 2,769 Climbing FAA TRACON SMA TRACON (SMA)
Fri 02:43:18 PM 38.8019 -90.1475 23° Northeast 254 292 6,800 2,850 Climbing FAA TRACON SMA TRACON (SMA)
Fri 02:43:38 PM 38.8281 -90.1342 22° Northeast 262 302 7,800 3,000 Climbing FAA TRACON SMA TRACON (SMA)
Fri 02:43:58 PM 38.8497 -90.1233 21° North 269 310 8,800 2,923 Climbing FAA TRACON SMA TRACON (SMA)
Fri 02:44:00 PM 38.9159 -90.1421 18° North  Level FlightAware Approximate
Fri 02:44:17 PM 38.8711 -90.1117 23° Northeast 271 312 9,700  Level FAA TRACON SMA TRACON (SMA)
Fri 02:44:37 PM 38.8978 -90.0978 22° Northeast 270 311 10,900 2,634 Climbing FAA TRACON SMA TRACON (SMA)
Fri 02:44:58 PM 38.9200 -90.0867 21° North 274 315 11,500 1,610 Climbing FAA TRACON SMA TRACON (SMA)
Fri 02:45:00 PM 38.9928 -90.1100 18° North  Level FlightAware Approximate
Fri 02:45:18 PM 38.9492 -90.0722 21° North 291 335 12,000  Level FAA TRACON SMA TRACON (SMA)
Fri 02:45:38 PM 38.9742 -90.0600 21° North 306 352 12,500 1,538 Climbing FAA TRACON SMA TRACON (SMA)
Fri 02:45:57 PM 38.9997 -90.0467 22° Northeast 320 368 13,000 1,538 Climbing FAA TRACON SMA TRACON (SMA)
Fri 02:46:00 PM 39.0706 -90.0820 14° North  Level FlightAware Approximate
Fri 02:46:17 PM 39.0264 -90.0336 21° North 330 380 13,500  Level FAA TRACON SMA TRACON (SMA)
Fri 02:46:38 PM 39.0606 -90.0161 22° Northeast 341 392 14,300 2,250 Climbing FAA TRACON SMA TRACON (SMA)
Fri 02:46:57 PM 39.0886 -90.0025 21° North 346 398 15,000 2,154 Climbing FAA TRACON SMA TRACON (SMA)
Fri 02:47:17 PM 39.1167 -89.9889 21° North 349 402 15,700 2,049 Climbing FAA TRACON SMA TRACON (SMA)
Fri 02:47:38 PM 39.1511 -89.9706 22° Northeast 350 403 16,400 1,800 Climbing FAA TRACON SMA TRACON (SMA)
Fri 02:47:57 PM 39.1800 -89.9561 21° North 356 410 16,900 1,650 Climbing FAA TRACON SMA TRACON (SMA)
Fri 02:48:18 PM 39.2089 -89.9411 22° Northeast 363 418 17,500 1,756 Climbing FAA TRACON SMA TRACON (SMA)
Fri 02:48:38 PM 39.2453 -89.9222 22° Northeast 366 421 18,100 1,800 Climbing FAA TRACON SMA TRACON (SMA)
Fri 02:48:58 PM 39.2744 -89.9069 22° Northeast 368 423 18,700 2,000 Climbing FAA TRACON SMA TRACON (SMA)
Fri 02:49:17 PM 39.3117 -89.8889 21° North 370 426 19,400 1,846 Climbing FAA TRACON SMA TRACON (SMA)
Fri 02:49:37 PM 39.3425 -89.8756 18° North 376 433 19,900 1,463 Climbing FAA TRACON SMA TRACON (SMA)
Fri 02:49:58 PM 39.3722 -89.8589 23° Northeast 378 435 20,400 1,650 Climbing FAA TRACON SMA TRACON (SMA)
Fri 02:50:17 PM 39.4106 -89.8400 21° North 382 440 21,000 923 Climbing FAA TRACON SMA TRACON (SMA)
Fri 02:50:37 PM 39.4419 -89.8236 22° Northeast 391 450 21,000  Level FAA TRACON SMA TRACON (SMA)
Fri 02:51:01 PM 39.4819 -89.8036 21° North 399 459 21,000  Level FAA TRACON SMA TRACON (SMA)
Fri 02:51:20 PM 39.5142 -89.7881 20° North 400 460 21,000  Level FAA TRACON SMA TRACON (SMA)
Fri 02:51:37 PM 39.5456 -89.7714 22° Northeast 400 460 21,000  Level FAA TRACON SMA TRACON (SMA)
Fri 02:51:58 PM 39.5781 -89.7567 19° North 401 461 21,000  Level FAA TRACON SMA TRACON (SMA)
Fri 02:52:17 PM 39.6186 -89.7375 20° North 401 461 21,000  Level FAA TRACON SMA TRACON (SMA)
Fri 02:52:37 PM 39.6253 -89.7303 40° Northeast 401 461 21,000  Level FAA TRACON SMA TRACON (SMA)
Fri 02:53:04 PM 39.6858 -89.7572 341° North 402 463 21,000  Level Chicago Center
Fri 02:53:36 PM 39.7489 -89.7225 23° Northeast 402 463 21,000  Level Kansas City Center
Fri 02:54:37 PM 39.8514 -89.6644 23° Northeast 401 461 21,000  Level Kansas City Center
Fri 02:55:40 PM 39.9439 -89.5775 36° Northeast 408 470 21,000  Level Kansas City Center
Fri 02:56:10 PM 39.9986 -89.5253 36° Northeast 414 476 21,000  Level Chicago Center
Fri 02:57:12 PM 40.0900 -89.4394 36° Northeast 409 471 21,000  Level Chicago Center
Fri 02:58:14 PM 40.1825 -89.3511 36° Northeast 413 475 21,000  Level Chicago Center
Fri 02:59:16 PM 40.2753 -89.2619 36° Northeast 415 478 21,000  Level Chicago Center
Fri 03:00:18 PM 40.3672 -89.1731 36° Northeast 414 476 21,000  Level Chicago Center
Fri 03:01:20 PM 40.4775 -89.0661 36° Northeast 414 476 21,000  Level Chicago Center
Fri 03:02:22 PM 40.5694 -88.9775 36° Northeast 411 473 21,000  Level Chicago Center
Fri 03:03:24 PM 40.6611 -88.8886 36° Northeast 412 474 21,000  Level Chicago Center
Fri 03:04:27 PM 40.7464 -88.8047 37° Northeast 408 470 21,000  Level Chicago Center
Fri 03:05:29 PM 40.8539 -88.7300 28° Northeast 368 423 21,000 -677 Level Chicago Center
Fri 03:06:31 PM 40.9492 -88.7139 North 348 400 19,600 -1,548 Descending Chicago Center
Fri 03:07:33 PM 41.0408 -88.6986 North 335 386 17,800 -1,742 Descending Chicago Center
Fri 03:08:35 PM 41.1281 -88.6850 North 317 365 16,000 -1,694 Descending Chicago Center
Fri 03:09:37 PM 41.2150 -88.6725 North 314 361 14,300 -1,645 Descending Chicago Center
Fri 03:10:39 PM 41.3003 -88.6603 North 308 354 12,600 -1,597 Descending Chicago Center
Fri 03:11:41 PM 41.3950 -88.6472 North 284 327 11,000 -774 Descending Chicago Center
Fri 03:12:43 PM 41.4569 -88.5861 36° Northeast 287 330 11,000  Level Chicago Center
Fri 03:13:45 PM 41.5144 -88.5111 44° Northeast 286 329 11,000 -48 Level Chicago Center
Fri 03:14:47 PM 41.5608 -88.4253 54° Northeast 299 344 10,900 -677 Descending Chicago Center
Fri 03:15:49 PM 41.5892 -88.3333 68° East 266 306 9,600 -1,296 Descending Chicago Center
Fri 03:16:52 PM 41.6342 -88.2811 41° Northeast 217 250 8,200 -768 Descending Chicago Center
Fri 03:17:54 PM 41.6831 -88.2225 42° Northeast 198 228 8,000 -145 Descending Chicago Center
Fri 03:18:56 PM 41.7294 -88.1628 44° Northeast 226 260 7,900 -823 Descending Chicago Center
Fri 03:19:58 PM 41.7744 -88.1058 43° Northeast 224 258 6,300 -1,597 Descending Chicago Center
Fri 03:21:00 PM 41.8203 -88.0600 37° Northeast 215 247 4,600 -1,645 Descending Chicago Center

Login

Don't have an account? Register now (free) for customized features, flight alerts, and more!